createdAt,value
2017-09-03T00:02:07.864Z,12.47
2017-09-03T00:04:33.626Z,12.59
2017-09-03T00:06:59.413Z,12.47
2017-09-03T00:09:25.176Z,12.52
2017-09-03T00:11:50.936Z,12.54
2017-09-03T00:14:16.707Z,12.53
2017-09-03T00:16:42.615Z,12.57
2017-09-03T00:19:08.480Z,12.64
2017-09-03T00:21:34.228Z,12.58
2017-09-03T00:24:00.027Z,12.53
2017-09-03T00:26:25.775Z,12.45
2017-09-03T00:28:51.528Z,12.45
2017-09-03T00:31:17.320Z,12.35
2017-09-03T00:33:43.079Z,12.23
2017-09-03T00:36:08.883Z,12.19
2017-09-03T00:38:34.650Z,12.15
2017-09-03T00:43:22.077Z,12.05
2017-09-03T00:45:47.892Z,12.09
2017-09-03T00:48:13.654Z,12.06
2017-09-03T00:50:39.419Z,11.92
2017-09-03T00:53:05.194Z,11.85
2017-09-03T00:55:31.088Z,11.79
2017-09-03T00:57:56.845Z,11.87
2017-09-03T01:00:22.596Z,11.90
2017-09-03T01:02:48.398Z,11.88
2017-09-03T01:05:14.150Z,11.71
2017-09-03T01:07:39.936Z,11.61
2017-09-03T01:10:05.690Z,11.67
2017-09-03T01:12:31.581Z,11.57
2017-09-03T01:14:57.362Z,11.43
2017-09-03T01:17:23.119Z,11.54
2017-09-03T01:19:48.872Z,11.44
2017-09-03T01:22:14.651Z,11.39
2017-09-03T01:24:40.387Z,11.33
2017-09-03T01:27:06.155Z,11.33
2017-09-03T01:29:31.940Z,11.18
2017-09-03T01:31:57.670Z,11.16
2017-09-03T01:34:23.471Z,11.12
2017-09-03T01:36:49.243Z,11.07
2017-09-03T01:39:14.974Z,10.95
2017-09-03T01:41:40.753Z,10.95
2017-09-03T01:44:06.541Z,10.89
2017-09-03T01:46:32.290Z,11.02
2017-09-03T01:48:58.063Z,10.95
2017-09-03T01:51:23.826Z,10.98
2017-09-03T01:53:49.603Z,10.98
2017-09-03T01:56:15.462Z,10.75
2017-09-03T01:58:41.255Z,10.77
2017-09-03T02:01:07.004Z,10.75
2017-09-03T02:03:32.755Z,10.58
2017-09-03T02:05:58.514Z,10.58
2017-09-03T02:08:24.383Z,10.61
2017-09-03T02:10:50.139Z,10.66
2017-09-03T02:13:15.878Z,10.68
2017-09-03T02:15:41.647Z,10.63
2017-09-03T02:18:07.391Z,10.58
2017-09-03T02:20:33.176Z,10.57
2017-09-03T02:22:58.936Z,10.46
2017-09-03T02:25:24.747Z,10.43
2017-09-03T02:27:50.534Z,10.29
2017-09-03T02:30:16.324Z,10.46
2017-09-03T02:32:42.109Z,10.26
2017-09-03T02:35:07.847Z,10.24
2017-09-03T02:37:33.605Z,10.40
2017-09-03T02:39:59.367Z,10.27
2017-09-03T02:42:25.200Z,10.01
2017-09-03T02:44:50.998Z,10.17
2017-09-03T02:47:16.737Z,10.13
2017-09-03T02:49:42.492Z,10.11
2017-09-03T02:52:08.264Z,10.25
2017-09-03T02:54:34.162Z,10.22
2017-09-03T02:56:59.942Z,10.26
2017-09-03T02:59:25.683Z,10.26
2017-09-03T03:01:51.432Z,10.41
2017-09-03T03:04:17.193Z,10.41
2017-09-03T03:06:42.975Z,10.38
2017-09-03T03:09:08.732Z,10.30
2017-09-03T03:11:34.651Z,10.28
2017-09-03T03:14:00.392Z,10.13
2017-09-03T03:16:26.148Z,10.05
2017-09-03T03:18:51.911Z,10.12
2017-09-03T03:21:17.658Z,10.02
2017-09-03T03:23:43.420Z,10.11
2017-09-03T03:26:09.154Z,9.99
2017-09-03T03:28:34.932Z,10.08
2017-09-03T03:31:00.697Z,10.04
2017-09-03T03:33:27.274Z,9.97
2017-09-03T03:35:53.034Z,10.00
2017-09-03T03:38:18.822Z,10.11
2017-09-03T03:40:44.590Z,10.07
2017-09-03T03:43:10.326Z,10.08
2017-09-03T03:45:36.104Z,9.99
2017-09-03T03:48:01.841Z,10.00
2017-09-03T03:50:27.598Z,9.81
2017-09-03T03:52:53.379Z,9.86
2017-09-03T03:55:19.131Z,9.85
2017-09-03T03:57:44.878Z,9.96
2017-09-03T04:00:10.660Z,9.91
2017-09-03T04:02:36.472Z,10.03
2017-09-03T04:05:02.247Z,9.96
2017-09-03T04:07:27.984Z,10.01
2017-09-03T04:09:54.420Z,10.00
2017-09-03T04:12:20.196Z,9.92
2017-09-03T04:14:45.989Z,9.89
2017-09-03T04:17:11.746Z,9.92
2017-09-03T04:19:37.503Z,10.03
2017-09-03T04:22:03.323Z,10.05
2017-09-03T04:24:29.093Z,10.05
2017-09-03T04:26:54.880Z,10.01
2017-09-03T04:29:20.620Z,10.02
2017-09-03T04:31:46.376Z,9.98
2017-09-03T04:34:12.158Z,9.92
2017-09-03T04:36:37.934Z,9.75
2017-09-03T04:39:03.704Z,9.71
2017-09-03T04:41:29.489Z,9.71
2017-09-03T04:43:55.230Z,9.86
2017-09-03T04:46:20.973Z,10.08
2017-09-03T04:48:46.912Z,10.04
2017-09-03T04:51:12.670Z,10.10
2017-09-03T04:53:38.439Z,10.19
2017-09-03T04:56:04.257Z,10.09
2017-09-03T04:58:30.064Z,10.12
2017-09-03T05:00:55.852Z,10.22
2017-09-03T05:03:21.595Z,10.30
2017-09-03T05:05:47.395Z,10.15
2017-09-03T05:08:13.130Z,10.36
2017-09-03T05:10:38.911Z,10.32
2017-09-03T05:13:04.712Z,10.46
2017-09-03T05:15:30.572Z,10.51
2017-09-03T05:17:56.309Z,10.50
2017-09-03T05:20:22.055Z,10.59
2017-09-03T05:22:47.830Z,10.57
2017-09-03T05:25:13.572Z,10.41
2017-09-03T05:27:39.362Z,10.59
2017-09-03T05:30:05.128Z,10.78
2017-09-03T05:32:30.894Z,10.87
2017-09-03T05:34:56.651Z,11.05
2017-09-03T05:37:22.475Z,11.15
2017-09-03T05:39:48.254Z,11.24
2017-09-03T05:42:14.084Z,11.33
2017-09-03T05:44:39.909Z,11.37
2017-09-03T05:47:05.695Z,11.23
2017-09-03T05:49:31.470Z,10.62
2017-09-03T05:51:57.270Z,10.93
2017-09-03T05:54:23.059Z,11.13
2017-09-03T05:56:48.909Z,11.25
2017-09-03T05:59:14.765Z,11.35
2017-09-03T06:01:40.604Z,11.51
2017-09-03T06:04:06.456Z,11.56
2017-09-03T06:06:32.305Z,11.44
2017-09-03T06:08:58.066Z,11.55
2017-09-03T06:11:23.889Z,11.71
2017-09-03T06:13:49.758Z,11.75
2017-09-03T06:16:15.508Z,11.87
2017-09-03T06:18:41.302Z,11.88
2017-09-03T06:21:07.038Z,11.91
2017-09-03T06:23:32.800Z,11.82
2017-09-03T06:25:58.558Z,11.59
2017-09-03T06:28:24.299Z,12.14
2017-09-03T06:30:50.110Z,12.47
2017-09-03T06:33:15.861Z,12.52
2017-09-03T06:35:41.604Z,12.74
2017-09-03T06:38:07.474Z,12.06
2017-09-03T06:40:33.243Z,12.74
2017-09-03T06:42:58.983Z,12.58
2017-09-03T06:45:24.859Z,13.31
2017-09-03T06:47:50.650Z,13.38
2017-09-03T06:50:16.432Z,13.28
2017-09-03T06:52:42.334Z,13.48
2017-09-03T06:55:08.189Z,14.45
2017-09-03T06:57:33.983Z,14.77
2017-09-03T06:59:59.778Z,14.32
2017-09-03T07:02:25.655Z,13.73
2017-09-03T07:04:51.411Z,15.20
2017-09-03T07:07:17.247Z,15.69
2017-09-03T07:09:43.114Z,15.55
2017-09-03T07:12:08.878Z,16.38
2017-09-03T07:14:34.722Z,16.34
2017-09-03T07:17:00.507Z,15.75
2017-09-03T07:19:26.276Z,15.38
2017-09-03T07:21:52.099Z,15.71
2017-09-03T07:24:17.966Z,15.82
2017-09-03T07:26:43.767Z,16.63
2017-09-03T07:29:09.543Z,17.15
2017-09-03T07:31:35.328Z,17.70
2017-09-03T07:34:01.073Z,17.33
2017-09-03T07:36:26.880Z,18.32
2017-09-03T07:38:52.671Z,17.92
2017-09-03T07:41:18.639Z,18.32
2017-09-03T07:43:44.432Z,17.47
2017-09-03T07:46:10.305Z,18.49
2017-09-03T07:48:36.070Z,18.63
2017-09-03T07:51:01.858Z,18.35
2017-09-03T07:53:27.632Z,18.42
2017-09-03T07:55:53.402Z,19.03
2017-09-03T07:58:19.203Z,19.54
2017-09-03T08:00:44.999Z,18.63
2017-09-03T08:03:10.768Z,19.09
2017-09-03T08:05:36.522Z,19.10
2017-09-03T08:08:02.335Z,19.65
2017-09-03T08:10:28.074Z,19.08
2017-09-03T08:12:53.815Z,19.68
2017-09-03T08:15:19.600Z,18.99
2017-09-03T08:17:45.374Z,19.44
2017-09-03T08:20:11.139Z,18.24
2017-09-03T08:22:36.935Z,18.48
2017-09-03T08:25:02.762Z,19.61
2017-09-03T08:27:28.578Z,20.27
2017-09-03T08:29:54.378Z,19.01
2017-09-03T08:32:20.232Z,19.13
2017-09-03T08:34:46.008Z,20.36
2017-09-03T08:37:11.900Z,20.84
2017-09-03T08:39:37.678Z,20.55
2017-09-03T08:42:03.446Z,19.42
2017-09-03T08:44:29.272Z,18.56
2017-09-03T08:46:55.019Z,19.06
2017-09-03T08:49:20.768Z,18.74
2017-09-03T08:51:46.557Z,18.83
2017-09-03T08:54:12.775Z,18.21
2017-09-03T08:56:39.002Z,17.66
2017-09-03T08:59:05.239Z,18.26
2017-09-03T09:01:31.471Z,18.02
2017-09-03T09:03:57.603Z,18.33
2017-09-03T09:06:23.734Z,18.55
2017-09-03T09:08:49.967Z,18.52
2017-09-03T09:11:16.000Z,18.00
2017-09-03T09:13:42.230Z,17.80
2017-09-03T09:16:08.371Z,18.06
2017-09-03T09:18:34.704Z,18.16
2017-09-03T09:21:00.835Z,17.64
2017-09-03T09:23:27.075Z,17.72
2017-09-03T09:25:53.094Z,17.56
2017-09-03T09:28:19.127Z,17.62
2017-09-03T09:30:45.362Z,17.29
2017-09-03T09:33:11.494Z,18.03
2017-09-03T09:35:37.523Z,18.38
2017-09-03T09:38:03.756Z,19.99
2017-09-03T09:40:29.891Z,20.56
2017-09-03T09:42:56.024Z,21.35
2017-09-03T09:45:22.154Z,21.23
2017-09-03T09:47:48.007Z,21.43
2017-09-03T09:50:14.421Z,22.03
2017-09-03T09:52:40.447Z,22.81
2017-09-03T09:55:06.684Z,22.42
2017-09-03T09:57:32.716Z,22.97
2017-09-03T09:59:58.954Z,22.38
2017-09-03T10:02:24.798Z,21.23
2017-09-03T10:04:50.559Z,21.92
2017-09-03T10:07:16.315Z,22.09
2017-09-03T10:09:42.103Z,21.20
2017-09-03T10:12:07.855Z,19.01
2017-09-03T10:14:33.654Z,20.19
2017-09-03T10:16:59.531Z,20.89
2017-09-03T10:19:25.275Z,20.98
2017-09-03T10:21:51.015Z,20.79
2017-09-03T10:24:16.802Z,20.52
2017-09-03T10:26:42.592Z,20.08
2017-09-03T10:29:08.346Z,20.62
2017-09-03T10:31:34.079Z,22.07
2017-09-03T10:33:59.867Z,21.62
2017-09-03T10:36:25.710Z,22.32
2017-09-03T10:38:51.498Z,21.30
2017-09-03T10:41:17.249Z,21.85
2017-09-03T10:43:43.046Z,21.70
2017-09-03T10:46:08.851Z,22.10
2017-09-03T10:48:34.691Z,20.94
2017-09-03T10:51:00.454Z,20.57
2017-09-03T10:53:26.278Z,19.82
2017-09-03T10:55:52.034Z,20.10
2017-09-03T10:58:17.780Z,20.06
2017-09-03T11:00:43.571Z,19.20
2017-09-03T11:03:09.321Z,19.00
2017-09-03T11:05:35.061Z,19.16
2017-09-03T11:08:00.847Z,18.80
2017-09-03T11:10:26.598Z,18.21
2017-09-03T11:12:52.392Z,18.54
2017-09-03T11:15:18.175Z,18.65
2017-09-03T11:17:43.981Z,18.78
2017-09-03T11:20:09.781Z,19.13
2017-09-03T11:22:35.635Z,19.41
2017-09-03T11:25:01.429Z,19.50
2017-09-03T11:27:27.331Z,18.79
2017-09-03T11:29:53.082Z,19.07
2017-09-03T11:32:18.834Z,19.57
2017-09-03T11:34:44.616Z,19.54
2017-09-03T11:37:10.424Z,19.93
2017-09-03T11:39:36.247Z,19.79
2017-09-03T11:42:02.046Z,20.34
2017-09-03T11:44:27.828Z,20.03
2017-09-03T11:46:53.599Z,20.30
2017-09-03T11:49:19.443Z,19.34
2017-09-03T11:51:45.240Z,19.23
2017-09-03T11:54:11.110Z,17.96
2017-09-03T11:56:36.867Z,18.40
2017-09-03T11:59:02.642Z,18.31
2017-09-03T12:01:28.459Z,18.34
2017-09-03T12:03:54.225Z,18.17
2017-09-03T12:06:20.007Z,18.06
2017-09-03T12:08:45.768Z,17.94
2017-09-03T12:11:11.535Z,17.81
2017-09-03T12:13:37.940Z,17.75
2017-09-03T12:16:03.699Z,17.78
2017-09-03T12:18:29.467Z,17.52
2017-09-03T12:20:55.237Z,17.35
2017-09-03T12:23:21.060Z,17.34
2017-09-03T12:25:46.841Z,17.17
2017-09-03T12:28:12.588Z,17.09
2017-09-03T12:30:38.390Z,16.59
2017-09-03T12:33:04.140Z,16.24
2017-09-03T12:35:29.950Z,15.94
2017-09-03T12:37:55.847Z,15.80
2017-09-03T12:40:21.634Z,15.09
2017-09-03T12:42:47.404Z,15.15
2017-09-03T12:45:13.205Z,15.06
2017-09-03T12:47:38.999Z,14.82
2017-09-03T12:50:04.785Z,14.66
2017-09-03T12:52:30.587Z,14.74
2017-09-03T12:54:57.629Z,14.52
2017-09-03T12:57:23.503Z,14.35
2017-09-03T12:59:49.280Z,14.18
2017-09-03T13:02:15.054Z,14.01
2017-09-03T13:04:40.858Z,13.58
2017-09-03T13:07:06.657Z,13.74
2017-09-03T13:09:32.491Z,14.22
2017-09-03T13:11:58.238Z,13.97
2017-09-03T13:14:23.987Z,14.30
2017-09-03T13:16:49.781Z,14.63
2017-09-03T13:19:15.567Z,14.51
2017-09-03T13:21:41.392Z,15.25
2017-09-03T13:24:07.214Z,15.75
2017-09-03T13:26:33.001Z,15.76
2017-09-03T13:28:58.863Z,16.64
2017-09-03T13:31:24.776Z,18.44
2017-09-03T13:33:50.630Z,19.49
2017-09-03T13:36:16.436Z,19.72
2017-09-03T13:38:42.247Z,19.61
2017-09-03T13:41:08.134Z,20.09
2017-09-03T13:43:33.886Z,20.83
2017-09-03T13:45:59.638Z,20.88
2017-09-03T13:48:25.424Z,20.50
2017-09-03T13:50:51.269Z,20.27
2017-09-03T13:53:17.124Z,19.47
2017-09-03T13:55:42.876Z,19.67
2017-09-03T13:58:08.691Z,21.51
2017-09-03T14:00:34.442Z,21.27
2017-09-03T14:03:00.200Z,21.36
2017-09-03T14:05:25.995Z,21.02
2017-09-03T14:07:51.730Z,21.39
2017-09-03T14:10:17.492Z,21.28
2017-09-03T14:12:43.316Z,21.66
2017-09-03T14:15:09.058Z,21.67
2017-09-03T14:17:34.854Z,21.15
2017-09-03T14:20:00.616Z,21.33
2017-09-03T14:22:26.367Z,21.58
2017-09-03T14:24:52.131Z,21.66
2017-09-03T14:27:17.953Z,21.57
2017-09-03T14:29:43.731Z,21.33
2017-09-03T14:32:09.575Z,21.10
2017-09-03T14:34:35.341Z,21.09
2017-09-03T14:37:01.131Z,21.18
2017-09-03T14:39:26.910Z,21.91
2017-09-03T14:41:52.717Z,22.32
2017-09-03T14:44:18.573Z,21.87
2017-09-03T14:46:44.319Z,20.67
2017-09-03T14:49:10.061Z,20.26
2017-09-03T14:51:35.845Z,19.93
2017-09-03T14:54:01.597Z,21.57
2017-09-03T14:56:27.339Z,20.91
2017-09-03T14:58:53.195Z,20.80
2017-09-03T15:01:18.961Z,20.80
2017-09-03T15:03:44.730Z,21.57
2017-09-03T15:06:10.564Z,21.96
2017-09-03T15:08:36.304Z,22.23
2017-09-03T15:11:02.079Z,22.95
2017-09-03T15:13:27.841Z,22.42
2017-09-03T15:15:53.628Z,20.06
2017-09-03T15:18:19.468Z,21.88
2017-09-03T15:20:45.761Z,22.61
2017-09-03T15:23:11.576Z,21.07
2017-09-03T15:25:37.306Z,22.01
2017-09-03T15:28:03.049Z,21.50
2017-09-03T15:30:28.845Z,21.43
2017-09-03T15:32:54.730Z,22.71
2017-09-03T15:35:20.527Z,22.49
2017-09-03T15:37:46.364Z,23.07
2017-09-03T15:40:12.102Z,22.70
2017-09-03T15:42:37.901Z,22.12
2017-09-03T15:45:03.772Z,22.15
2017-09-03T15:47:29.556Z,20.73
2017-09-03T15:49:55.355Z,21.24
2017-09-03T15:52:21.111Z,21.84
2017-09-03T15:54:46.900Z,21.55
2017-09-03T15:57:12.674Z,20.53
2017-09-03T15:59:38.422Z,19.80
2017-09-03T16:02:04.228Z,20.62
2017-09-03T16:04:30.020Z,20.64
2017-09-03T16:06:55.883Z,20.77
2017-09-03T16:09:21.637Z,19.91
2017-09-03T16:11:47.379Z,20.32
2017-09-03T16:14:13.159Z,20.27
2017-09-03T16:16:39.582Z,20.45
2017-09-03T16:19:05.398Z,19.50
2017-09-03T16:21:31.143Z,19.70
2017-09-03T16:23:56.920Z,19.93
2017-09-03T16:26:22.675Z,20.23
2017-09-03T16:28:48.467Z,19.83
2017-09-03T16:31:14.218Z,20.08
2017-09-03T16:33:39.976Z,19.60
2017-09-03T16:36:05.766Z,19.71
2017-09-03T16:38:31.564Z,19.41
2017-09-03T16:43:37.175Z,19.12
2017-09-03T16:46:02.923Z,18.55
2017-09-03T16:48:28.682Z,18.80
2017-09-03T16:50:54.483Z,18.64
2017-09-03T16:53:20.227Z,17.86
2017-09-03T16:55:46.024Z,17.24
2017-09-03T16:58:11.807Z,17.40
2017-09-03T17:00:37.655Z,17.08
2017-09-03T17:03:03.443Z,16.81
2017-09-03T17:05:29.216Z,16.47
2017-09-03T17:07:55.038Z,16.78
2017-09-03T17:10:20.826Z,17.12
2017-09-03T17:12:46.584Z,17.27
2017-09-03T17:15:12.379Z,17.21
2017-09-03T17:17:38.191Z,17.14
2017-09-03T17:20:03.952Z,17.13
2017-09-03T17:22:29.767Z,17.00
2017-09-03T17:24:55.598Z,16.90
2017-09-03T17:27:21.391Z,16.68
2017-09-03T17:29:48.056Z,16.55
2017-09-03T17:32:13.860Z,16.58
2017-09-03T17:34:42.533Z,16.33
2017-09-03T17:37:11.466Z,16.32
2017-09-03T17:39:42.127Z,16.05
2017-09-03T17:42:10.756Z,15.86
2017-09-03T17:44:36.639Z,15.57
2017-09-03T17:47:02.443Z,15.49
2017-09-03T17:49:28.190Z,15.43
2017-09-03T17:51:54.363Z,15.42
2017-09-03T17:54:20.161Z,15.29
2017-09-03T17:56:45.922Z,15.31
2017-09-03T17:59:11.738Z,15.25
2017-09-03T18:01:37.538Z,15.15
2017-09-03T18:04:03.399Z,15.20
2017-09-03T18:06:29.247Z,15.25
2017-09-03T18:08:55.097Z,15.01
2017-09-03T18:11:20.867Z,14.85
2017-09-03T18:13:46.662Z,14.85
2017-09-03T18:16:12.443Z,14.69
2017-09-03T18:18:38.233Z,14.62
2017-09-03T18:21:04.055Z,14.44
2017-09-03T18:23:29.826Z,14.26
2017-09-03T18:25:55.619Z,14.09
2017-09-03T18:28:24.368Z,13.84
2017-09-03T18:30:50.115Z,14.01
2017-09-03T18:33:15.916Z,13.88
2017-09-03T18:35:42.610Z,13.89
2017-09-03T18:38:09.298Z,13.83
2017-09-03T18:40:36.950Z,13.70
2017-09-03T18:43:06.730Z,13.62
2017-09-03T18:45:33.391Z,13.60
2017-09-03T18:47:59.149Z,13.55
2017-09-03T18:50:25.844Z,13.37
2017-09-03T18:52:52.415Z,13.25
2017-09-03T18:55:18.217Z,13.11
2017-09-03T18:57:48.814Z,13.02
2017-09-03T19:00:14.566Z,13.03
2017-09-03T19:02:40.353Z,13.11
2017-09-03T19:05:06.107Z,13.03
2017-09-03T19:07:31.983Z,13.07
2017-09-03T19:09:57.774Z,13.06
2017-09-03T19:12:23.684Z,12.98
2017-09-03T19:14:49.458Z,12.93
2017-09-03T19:17:15.240Z,12.90
2017-09-03T19:19:40.990Z,12.91
2017-09-03T19:22:06.803Z,12.88
2017-09-03T19:24:32.627Z,12.80
2017-09-03T19:26:58.396Z,12.63
2017-09-03T19:29:24.181Z,12.68
2017-09-03T19:31:49.930Z,12.58
2017-09-03T19:34:15.740Z,12.55
2017-09-03T19:36:41.497Z,12.55
2017-09-03T19:39:07.278Z,12.37
2017-09-03T19:41:33.044Z,12.34
2017-09-03T19:43:58.810Z,12.30
2017-09-03T19:46:24.620Z,12.33
2017-09-03T19:48:50.374Z,12.23
2017-09-03T19:51:16.140Z,12.24
2017-09-03T19:53:41.892Z,12.21
2017-09-03T19:56:07.674Z,12.14
2017-09-03T19:58:33.411Z,11.96
2017-09-03T20:00:59.178Z,11.93
2017-09-03T20:03:25.002Z,12.00
2017-09-03T20:05:50.772Z,11.92
2017-09-03T20:08:16.555Z,11.91
2017-09-03T20:10:42.290Z,11.75
2017-09-03T20:13:08.079Z,11.55
2017-09-03T20:15:33.926Z,11.66
2017-09-03T20:17:59.707Z,11.65
2017-09-03T20:20:26.307Z,11.58
2017-09-03T20:22:52.068Z,11.52
2017-09-03T20:25:17.853Z,11.65
2017-09-03T20:27:43.676Z,11.74
2017-09-03T20:30:09.469Z,11.65
2017-09-03T20:32:35.269Z,11.59
2017-09-03T20:35:01.017Z,11.60
2017-09-03T20:37:26.779Z,11.45
2017-09-03T20:39:52.543Z,11.44
2017-09-03T20:42:18.328Z,11.46
2017-09-03T20:44:44.104Z,11.51
2017-09-03T20:47:09.972Z,11.53
2017-09-03T20:49:35.779Z,11.48
2017-09-03T20:52:01.586Z,11.44
2017-09-03T20:54:27.325Z,11.38
2017-09-03T20:56:53.100Z,11.27
2017-09-03T20:59:18.999Z,11.29
2017-09-03T21:01:44.768Z,11.20
2017-09-03T21:04:10.627Z,11.16
2017-09-03T21:06:36.409Z,11.13
2017-09-03T21:09:02.222Z,11.21
2017-09-03T21:11:27.991Z,11.20
2017-09-03T21:13:54.567Z,11.15
2017-09-03T21:16:20.352Z,10.96
2017-09-03T21:18:46.122Z,10.93
2017-09-03T21:21:11.907Z,10.92
2017-09-03T21:23:37.663Z,10.80
2017-09-03T21:26:03.408Z,10.72
2017-09-03T21:28:29.183Z,10.78
2017-09-03T21:30:54.926Z,10.96
2017-09-03T21:33:20.712Z,10.81
2017-09-03T21:35:46.463Z,10.79
2017-09-03T21:38:12.199Z,10.79
2017-09-03T21:40:37.966Z,10.83
2017-09-03T21:43:03.695Z,10.91
2017-09-03T21:45:29.490Z,10.72
2017-09-03T21:47:55.263Z,10.80
2017-09-03T21:50:21.046Z,10.77
2017-09-03T21:52:46.820Z,10.72
2017-09-03T21:55:12.585Z,10.81
2017-09-03T21:57:38.390Z,10.90
2017-09-03T22:00:04.171Z,10.78
2017-09-03T22:02:30.006Z,10.76
2017-09-03T22:04:55.763Z,10.76
2017-09-03T22:07:21.507Z,10.75
2017-09-03T22:09:47.292Z,10.77
2017-09-03T22:12:13.064Z,10.73
2017-09-03T22:14:38.808Z,10.82
2017-09-03T22:17:04.582Z,10.71
2017-09-03T22:19:30.367Z,10.62
2017-09-03T22:21:56.107Z,10.57
2017-09-03T22:24:21.883Z,10.65
2017-09-03T22:26:47.622Z,10.35
2017-09-03T22:29:13.398Z,10.17
2017-09-03T22:31:39.146Z,10.27
2017-09-03T22:34:04.934Z,10.36
2017-09-03T22:36:30.674Z,10.30
2017-09-03T22:38:56.523Z,10.30
2017-09-03T22:41:22.299Z,10.28
2017-09-03T22:43:48.062Z,10.21
2017-09-03T22:46:13.791Z,10.07
2017-09-03T22:48:39.570Z,10.14
2017-09-03T22:51:05.309Z,10.22
2017-09-03T22:53:31.065Z,10.07
2017-09-03T22:55:56.865Z,10.05
2017-09-03T22:58:22.624Z,10.24
2017-09-03T23:00:48.407Z,10.20
2017-09-03T23:03:14.163Z,10.27
2017-09-03T23:05:39.935Z,10.20
2017-09-03T23:08:05.709Z,10.12
2017-09-03T23:10:31.466Z,10.16
2017-09-03T23:12:57.194Z,10.05
2017-09-03T23:15:22.993Z,9.97
2017-09-03T23:17:48.753Z,9.93
2017-09-03T23:20:14.509Z,10.06
2017-09-03T23:22:40.276Z,10.01
2017-09-03T23:25:06.038Z,9.92
2017-09-03T23:27:31.775Z,9.96
2017-09-03T23:29:57.626Z,9.98
2017-09-03T23:32:23.375Z,9.99
2017-09-03T23:34:49.123Z,9.95
2017-09-03T23:37:14.903Z,9.79
2017-09-03T23:39:40.683Z,9.90
2017-09-03T23:42:06.419Z,9.90
2017-09-03T23:44:32.235Z,9.92
2017-09-03T23:46:57.988Z,9.92
2017-09-03T23:49:23.797Z,9.79
2017-09-03T23:51:49.532Z,9.80
2017-09-03T23:54:15.282Z,9.93
2017-09-03T23:56:41.057Z,9.82
2017-09-03T23:59:06.816Z,9.84
